Wabowden, Canada
Current Conditions -  °F | °C
As of 12:00 AM on Wednesday 22 Oct 2014 (Local Time) from CYTH Reporting Station
Clear Clear  
Wind Chill: 44°   Ceiling: Unl
Heat Index: 46°   Visibility: 15mi
Dew Point: 41°   Wind: 5mph
Humidity: 81%   Direction: 180°S
Pressure: 29.63"   Gusts: NA
Location:  54.92°N, 98.63°W
Report Text: CYTH 220500Z 18004KT 15SM SKC 08/05 A2963 RMK SLP044
Loading
Personal Weather Stations






























Interactive Weather Map
Tropical Storm Tracking
New forecast layout! Learn more

10-Day Weather Forecast

Advertisements
Track Severe Weather on mobile